sensor_id;sensor_type;location;lat;lon;timestamp;temperature;humidity
5848;DHT22;8756;49.29324300;8.70599800;2023-04-25T00:01:23;9.40;99.90
5848;DHT22;8756;49.29324300;8.70599800;2023-04-25T00:03:49;9.40;99.90
5848;DHT22;8756;49.29324300;8.70599800;2023-04-25T00:06:15;9.40;99.90
5848;DHT22;8756;49.29324300;8.70599800;2023-04-25T00:08:41;9.40;99.90
5848;DHT22;8756;49.29324300;8.70599800;2023-04-25T00:11:07;9.40;99.90
5848;DHT22;8756;49.29324300;8.70599800;2023-04-25T00:13:32;9.40;99.90
5848;DHT22;8756;49.29324300;8.70599800;2023-04-25T00:15:58;9.40;99.90
5848;DHT22;8756;49.29324300;8.70599800;2023-04-25T00:18:25;9.40;99.90
5848;DHT22;8756;49.29324300;8.70599800;2023-04-25T00:20:54;9.40;99.90
5848;DHT22;8756;49.29324300;8.70599800;2023-04-25T00:23:21;9.40;99.90
5848;DHT22;8756;49.29324300;8.70599800;2023-04-25T00:25:49;9.40;99.90
5848;DHT22;8756;49.29324300;8.70599800;2023-04-25T00:28:15;9.40;99.90
5848;DHT22;8756;49.29324300;8.70599800;2023-04-25T00:30:41;9.40;99.90
5848;DHT22;8756;49.29324300;8.70599800;2023-04-25T00:33:08;9.40;99.90
5848;DHT22;8756;49.29324300;8.70599800;2023-04-25T00:35:34;9.30;99.90
5848;DHT22;8756;49.29324300;8.70599800;2023-04-25T00:38:00;9.30;99.90
5848;DHT22;8756;49.29324300;8.70599800;2023-04-25T00:40:26;9.30;99.90
5848;DHT22;8756;49.29324300;8.70599800;2023-04-25T00:42:53;9.20;99.90
5848;DHT22;8756;49.29324300;8.70599800;2023-04-25T00:45:19;9.20;99.90
5848;DHT22;8756;49.29324300;8.70599800;2023-04-25T00:47:45;9.20;99.90
5848;DHT22;8756;49.29324300;8.70599800;2023-04-25T00:50:12;9.20;99.90
5848;DHT22;8756;49.29324300;8.70599800;2023-04-25T00:52:39;9.20;99.90
5848;DHT22;8756;49.29324300;8.70599800;2023-04-25T00:55:07;9.20;99.90
5848;DHT22;8756;49.29324300;8.70599800;2023-04-25T00:57:33;9.20;99.90
5848;DHT22;8756;49.29324300;8.70599800;2023-04-25T00:59:59;9.20;99.90
5848;DHT22;8756;49.29324300;8.70599800;2023-04-25T01:02:26;9.20;99.90
5848;DHT22;8756;49.29324300;8.70599800;2023-04-25T01:04:52;9.20;99.90
5848;DHT22;8756;49.29324300;8.70599800;2023-04-25T01:07:18;9.20;99.90
5848;DHT22;8756;49.29324300;8.70599800;2023-04-25T01:09:45;9.20;99.90
5848;DHT22;8756;49.29324300;8.70599800;2023-04-25T01:12:11;9.20;99.90
5848;DHT22;8756;49.29324300;8.70599800;2023-04-25T01:14:38;9.20;99.90
5848;DHT22;8756;49.29324300;8.70599800;2023-04-25T01:17:04;9.20;99.90
5848;DHT22;8756;49.29324300;8.70599800;2023-04-25T01:19:30;9.20;99.90
5848;DHT22;8756;49.29324300;8.70599800;2023-04-25T01:21:56;9.20;99.90
5848;DHT22;8756;49.29324300;8.70599800;2023-04-25T01:24:22;9.20;99.90
5848;DHT22;8756;49.29324300;8.70599800;2023-04-25T01:26:48;9.20;99.90
5848;DHT22;8756;49.29324300;8.70599800;2023-04-25T01:29:19;9.20;99.90
5848;DHT22;8756;49.29324300;8.70599800;2023-04-25T01:31:46;9.20;99.90
5848;DHT22;8756;49.29324300;8.70599800;2023-04-25T01:34:14;9.20;99.90
5848;DHT22;8756;49.29324300;8.70599800;2023-04-25T01:36:40;9.20;99.90
5848;DHT22;8756;49.29324300;8.70599800;2023-04-25T01:39:06;9.20;99.90
5848;DHT22;8756;49.29324300;8.70599800;2023-04-25T01:41:32;9.20;99.90
5848;DHT22;8756;49.29324300;8.70599800;2023-04-25T01:44:00;9.20;99.90
5848;DHT22;8756;49.29324300;8.70599800;2023-04-25T01:46:26;9.20;99.90
5848;DHT22;8756;49.29324300;8.70599800;2023-04-25T01:48:53;9.20;99.90
5848;DHT22;8756;49.29324300;8.70599800;2023-04-25T01:51:18;9.20;99.90
5848;DHT22;8756;49.29324300;8.70599800;2023-04-25T01:53:44;9.10;99.90
5848;DHT22;8756;49.29324300;8.70599800;2023-04-25T01:56:10;9.10;99.90
5848;DHT22;8756;49.29324300;8.70599800;2023-04-25T01:58:36;9.10;99.90
5848;DHT22;8756;49.29324300;8.70599800;2023-04-25T02:01:02;9.00;99.90
5848;DHT22;8756;49.29324300;8.70599800;2023-04-25T02:03:30;9.10;99.90
5848;DHT22;8756;49.29324300;8.70599800;2023-04-25T02:05:56;9.00;99.90
5848;DHT22;8756;49.29324300;8.70599800;2023-04-25T02:08:22;9.00;99.90
5848;DHT22;8756;49.29324300;8.70599800;2023-04-25T02:10:48;9.00;99.90
5848;DHT22;8756;49.29324300;8.70599800;2023-04-25T02:13:13;9.00;99.90
5848;DHT22;8756;49.29324300;8.70599800;2023-04-25T02:15:39;9.00;99.90
5848;DHT22;8756;49.29324300;8.70599800;2023-04-25T02:18:05;9.00;99.90
5848;DHT22;8756;49.29324300;8.70599800;2023-04-25T02:20:31;9.00;99.90
5848;DHT22;8756;49.29324300;8.70599800;2023-04-25T02:22:57;9.00;99.90
5848;DHT22;8756;49.29324300;8.70599800;2023-04-25T02:25:23;8.90;99.90
5848;DHT22;8756;49.29324300;8.70599800;2023-04-25T02:27:48;8.90;99.90
5848;DHT22;8756;49.29324300;8.70599800;2023-04-25T02:30:15;8.90;99.90
5848;DHT22;8756;49.29324300;8.70599800;2023-04-25T02:32:40;8.90;99.90
5848;DHT22;8756;49.29324300;8.70599800;2023-04-25T02:35:07;8.90;99.90
5848;DHT22;8756;49.29324300;8.70599800;2023-04-25T02:37:34;8.90;99.90
5848;DHT22;8756;49.29324300;8.70599800;2023-04-25T02:40:00;8.90;99.90
5848;DHT22;8756;49.29324300;8.70599800;2023-04-25T02:42:27;8.90;99.90
5848;DHT22;8756;49.29324300;8.70599800;2023-04-25T02:44:53;8.90;99.90
5848;DHT22;8756;49.29324300;8.70599800;2023-04-25T02:47:18;8.90;99.90
5848;DHT22;8756;49.29324300;8.70599800;2023-04-25T02:49:44;8.90;99.90
5848;DHT22;8756;49.29324300;8.70599800;2023-04-25T02:52:11;8.90;99.90
5848;DHT22;8756;49.29324300;8.70599800;2023-04-25T02:54:37;8.80;99.90
5848;DHT22;8756;49.29324300;8.70599800;2023-04-25T02:57:03;8.80;99.90
5848;DHT22;8756;49.29324300;8.70599800;2023-04-25T02:59:29;8.80;99.90
5848;DHT22;8756;49.29324300;8.70599800;2023-04-25T03:01:55;8.80;99.90
5848;DHT22;8756;49.29324300;8.70599800;2023-04-25T03:04:20;8.70;99.90
5848;DHT22;8756;49.29324300;8.70599800;2023-04-25T03:06:52;8.60;99.90
5848;DHT22;8756;49.29324300;8.70599800;2023-04-25T03:09:18;8.60;99.90
5848;DHT22;8756;49.29324300;8.70599800;2023-04-25T03:11:44;8.50;99.90
5848;DHT22;8756;49.29324300;8.70599800;2023-04-25T03:14:11;8.50;99.90
5848;DHT22;8756;49.29324300;8.70599800;2023-04-25T03:16:37;8.40;99.90
5848;DHT22;8756;49.29324300;8.70599800;2023-04-25T03:19:03;8.40;99.90
5848;DHT22;8756;49.29324300;8.70599800;2023-04-25T03:21:31;8.40;99.90
5848;DHT22;8756;49.29324300;8.70599800;2023-04-25T03:23:58;8.40;99.90
5848;DHT22;8756;49.29324300;8.70599800;2023-04-25T03:26:24;8.40;99.90
5848;DHT22;8756;49.29324300;8.70599800;2023-04-25T03:28:50;8.40;99.90
5848;DHT22;8756;49.29324300;8.70599800;2023-04-25T03:31:16;8.50;99.90
5848;DHT22;8756;49.29324300;8.70599800;2023-04-25T03:33:41;8.50;99.90
5848;DHT22;8756;49.29324300;8.70599800;2023-04-25T03:36:07;8.40;99.90
5848;DHT22;8756;49.29324300;8.70599800;2023-04-25T03:38:33;8.40;99.90
5848;DHT22;8756;49.29324300;8.70599800;2023-04-25T03:40:59;8.50;99.90
5848;DHT22;8756;49.29324300;8.70599800;2023-04-25T03:43:24;8.50;99.90
5848;DHT22;8756;49.29324300;8.70599800;2023-04-25T03:45:50;8.50;99.90
5848;DHT22;8756;49.29324300;8.70599800;2023-04-25T03:48:16;8.60;99.90
5848;DHT22;8756;49.29324300;8.70599800;2023-04-25T03:50:42;8.60;99.90
5848;DHT22;8756;49.29324300;8.70599800;2023-04-25T03:53:07;8.60;99.90
5848;DHT22;8756;49.29324300;8.70599800;2023-04-25T03:55:33;8.60;99.90
5848;DHT22;8756;49.29324300;8.70599800;2023-04-25T03:57:58;8.70;99.90
5848;DHT22;8756;49.29324300;8.70599800;2023-04-25T04:00:25;8.70;99.90
5848;DHT22;8756;49.29324300;8.70599800;2023-04-25T04:02:50;8.70;99.90
5848;DHT22;8756;49.29324300;8.70599800;2023-04-25T04:05:16;8.70;99.90
5848;DHT22;8756;49.29324300;8.70599800;2023-04-25T04:07:42;8.70;99.90
5848;DHT22;8756;49.29324300;8.70599800;2023-04-25T04:10:09;8.80;99.90
5848;DHT22;8756;49.29324300;8.70599800;2023-04-25T04:12:36;8.80;99.90
5848;DHT22;8756;49.29324300;8.70599800;2023-04-25T04:15:03;8.80;99.90
5848;DHT22;8756;49.29324300;8.70599800;2023-04-25T04:17:30;8.70;99.90
5848;DHT22;8756;49.29324300;8.70599800;2023-04-25T04:19:55;8.80;99.90
5848;DHT22;8756;49.29324300;8.70599800;2023-04-25T04:22:22;8.80;99.90
5848;DHT22;8756;49.29324300;8.70599800;2023-04-25T04:24:48;8.80;99.90
5848;DHT22;8756;49.29324300;8.70599800;2023-04-25T04:27:16;8.80;99.90
5848;DHT22;8756;49.29324300;8.70599800;2023-04-25T04:29:43;8.80;99.90
5848;DHT22;8756;49.29324300;8.70599800;2023-04-25T04:32:09;8.80;99.90
5848;DHT22;8756;49.29324300;8.70599800;2023-04-25T04:34:35;8.80;99.90
5848;DHT22;8756;49.29324300;8.70599800;2023-04-25T04:37:01;8.80;99.90
5848;DHT22;8756;49.29324300;8.70599800;2023-04-25T04:39:30;8.80;99.90
5848;DHT22;8756;49.29324300;8.70599800;2023-04-25T04:41:56;8.80;99.90
5848;DHT22;8756;49.29324300;8.70599800;2023-04-25T04:44:22;8.80;99.90
5848;DHT22;8756;49.29324300;8.70599800;2023-04-25T04:46:48;8.80;99.90
5848;DHT22;8756;49.29324300;8.70599800;2023-04-25T04:49:13;8.80;99.90
5848;DHT22;8756;49.29324300;8.70599800;2023-04-25T04:51:39;8.70;99.90
5848;DHT22;8756;49.29324300;8.70599800;2023-04-25T04:54:10;8.70;99.90
5848;DHT22;8756;49.29324300;8.70599800;2023-04-25T04:56:35;8.70;99.90
5848;DHT22;8756;49.29324300;8.70599800;2023-04-25T04:59:01;8.70;99.90
5848;DHT22;8756;49.29324300;8.70599800;2023-04-25T05:01:28;8.80;99.90
5848;DHT22;8756;49.29324300;8.70599800;2023-04-25T05:03:55;8.80;99.90
5848;DHT22;8756;49.29324300;8.70599800;2023-04-25T05:06:26;8.80;99.90
5848;DHT22;8756;49.29324300;8.70599800;2023-04-25T05:08:52;8.80;99.90
5848;DHT22;8756;49.29324300;8.70599800;2023-04-25T05:11:19;8.80;99.90
5848;DHT22;8756;49.29324300;8.70599800;2023-04-25T05:13:44;8.80;99.90
5848;DHT22;8756;49.29324300;8.70599800;2023-04-25T05:16:11;8.80;99.90
5848;DHT22;8756;49.29324300;8.70599800;2023-04-25T05:18:39;8.80;99.90
5848;DHT22;8756;49.29324300;8.70599800;2023-04-25T05:21:05;8.80;99.90
5848;DHT22;8756;49.29324300;8.70599800;2023-04-25T05:23:32;8.80;99.90
5848;DHT22;8756;49.29324300;8.70599800;2023-04-25T05:25:58;8.80;99.90
5848;DHT22;8756;49.29324300;8.70599800;2023-04-25T05:28:24;8.80;99.90
5848;DHT22;8756;49.29324300;8.70599800;2023-04-25T05:30:50;8.80;99.90
5848;DHT22;8756;49.29324300;8.70599800;2023-04-25T05:33:16;8.80;99.90
5848;DHT22;8756;49.29324300;8.70599800;2023-04-25T05:35:42;8.80;99.90
5848;DHT22;8756;49.29324300;8.70599800;2023-04-25T05:38:08;8.80;99.90
5848;DHT22;8756;49.29324300;8.70599800;2023-04-25T05:40:34;8.80;99.90
5848;DHT22;8756;49.29324300;8.70599800;2023-04-25T05:43:00;8.70;99.90
5848;DHT22;8756;49.29324300;8.70599800;2023-04-25T05:45:26;8.70;99.90
5848;DHT22;8756;49.29324300;8.70599800;2023-04-25T05:47:51;8.80;99.90
5848;DHT22;8756;49.29324300;8.70599800;2023-04-25T05:50:17;8.80;99.90
5848;DHT22;8756;49.29324300;8.70599800;2023-04-25T05:52:43;8.80;99.90
5848;DHT22;8756;49.29324300;8.70599800;2023-04-25T05:55:09;8.90;99.90
5848;DHT22;8756;49.29324300;8.70599800;2023-04-25T05:57:34;8.90;99.90
5848;DHT22;8756;49.29324300;8.70599800;2023-04-25T06:00:00;8.90;99.90
5848;DHT22;8756;49.29324300;8.70599800;2023-04-25T06:02:26;8.90;99.90
5848;DHT22;8756;49.29324300;8.70599800;2023-04-25T06:04:52;8.80;99.90
5848;DHT22;8756;49.29324300;8.70599800;2023-04-25T06:07:19;8.80;99.90
5848;DHT22;8756;49.29324300;8.70599800;2023-04-25T06:09:45;8.90;99.90
5848;DHT22;8756;49.29324300;8.70599800;2023-04-25T06:12:11;8.90;99.90
5848;DHT22;8756;49.29324300;8.70599800;2023-04-25T06:14:36;8.90;99.90
5848;DHT22;8756;49.29324300;8.70599800;2023-04-25T06:17:03;8.90;99.90
5848;DHT22;8756;49.29324300;8.70599800;2023-04-25T06:19:34;9.00;99.90
5848;DHT22;8756;49.29324300;8.70599800;2023-04-25T06:22:01;9.00;99.90
5848;DHT22;8756;49.29324300;8.70599800;2023-04-25T06:24:27;9.00;99.90
5848;DHT22;8756;49.29324300;8.70599800;2023-04-25T06:26:53;9.00;99.90
5848;DHT22;8756;49.29324300;8.70599800;2023-04-25T06:29:20;9.00;99.90
5848;DHT22;8756;49.29324300;8.70599800;2023-04-25T06:31:46;9.00;99.90
5848;DHT22;8756;49.29324300;8.70599800;2023-04-25T06:34:12;9.00;99.90
5848;DHT22;8756;49.29324300;8.70599800;2023-04-25T06:36:37;9.00;99.90
5848;DHT22;8756;49.29324300;8.70599800;2023-04-25T06:39:03;9.10;99.90
5848;DHT22;8756;49.29324300;8.70599800;2023-04-25T06:41:29;9.10;99.90
5848;DHT22;8756;49.29324300;8.70599800;2023-04-25T06:43:54;9.00;99.90
5848;DHT22;8756;49.29324300;8.70599800;2023-04-25T06:46:20;9.00;99.90
5848;DHT22;8756;49.29324300;8.70599800;2023-04-25T06:48:46;9.00;99.90
5848;DHT22;8756;49.29324300;8.70599800;2023-04-25T06:51:12;9.00;99.90
5848;DHT22;8756;49.29324300;8.70599800;2023-04-25T06:53:39;9.00;99.90
5848;DHT22;8756;49.29324300;8.70599800;2023-04-25T06:56:07;9.00;99.90
5848;DHT22;8756;49.29324300;8.70599800;2023-04-25T06:58:33;9.10;99.90
5848;DHT22;8756;49.29324300;8.70599800;2023-04-25T07:00:58;9.00;99.90
5848;DHT22;8756;49.29324300;8.70599800;2023-04-25T07:03:24;9.10;99.90
5848;DHT22;8756;49.29324300;8.70599800;2023-04-25T07:05:50;9.10;99.90
5848;DHT22;8756;49.29324300;8.70599800;2023-04-25T07:08:16;9.00;99.90
5848;DHT22;8756;49.29324300;8.70599800;2023-04-25T07:10:42;9.00;99.90
5848;DHT22;8756;49.29324300;8.70599800;2023-04-25T07:13:08;9.00;99.90
5848;DHT22;8756;49.29324300;8.70599800;2023-04-25T07:15:33;9.00;99.90
5848;DHT22;8756;49.29324300;8.70599800;2023-04-25T07:17:59;9.00;99.90
5848;DHT22;8756;49.29324300;8.70599800;2023-04-25T07:20:25;9.00;99.90
5848;DHT22;8756;49.29324300;8.70599800;2023-04-25T07:22:52;9.00;99.90
5848;DHT22;8756;49.29324300;8.70599800;2023-04-25T07:25:19;9.10;99.90
5848;DHT22;8756;49.29324300;8.70599800;2023-04-25T07:27:44;9.10;99.90
5848;DHT22;8756;49.29324300;8.70599800;2023-04-25T07:30:11;9.10;99.90
5848;DHT22;8756;49.29324300;8.70599800;2023-04-25T07:32:38;9.10;99.90
5848;DHT22;8756;49.29324300;8.70599800;2023-04-25T07:35:04;9.20;99.90
5848;DHT22;8756;49.29324300;8.70599800;2023-04-25T07:37:30;9.20;99.90
5848;DHT22;8756;49.29324300;8.70599800;2023-04-25T07:39:55;9.20;99.90
5848;DHT22;8756;49.29324300;8.70599800;2023-04-25T07:42:21;9.20;99.90
5848;DHT22;8756;49.29324300;8.70599800;2023-04-25T07:44:47;9.20;99.90
5848;DHT22;8756;49.29324300;8.70599800;2023-04-25T07:47:12;9.20;99.90
5848;DHT22;8756;49.29324300;8.70599800;2023-04-25T07:49:39;9.10;99.90
5848;DHT22;8756;49.29324300;8.70599800;2023-04-25T07:52:05;9.00;99.90
5848;DHT22;8756;49.29324300;8.70599800;2023-04-25T07:54:31;9.00;99.90
5848;DHT22;8756;49.29324300;8.70599800;2023-04-25T07:56:58;9.00;99.90
5848;DHT22;8756;49.29324300;8.70599800;2023-04-25T07:59:24;8.90;99.90
5848;DHT22;8756;49.29324300;8.70599800;2023-04-25T08:01:50;8.90;99.90
5848;DHT22;8756;49.29324300;8.70599800;2023-04-25T08:04:16;8.80;99.90
5848;DHT22;8756;49.29324300;8.70599800;2023-04-25T08:06:42;8.80;99.90
5848;DHT22;8756;49.29324300;8.70599800;2023-04-25T08:09:08;8.70;99.90
5848;DHT22;8756;49.29324300;8.70599800;2023-04-25T08:11:36;8.70;99.90
5848;DHT22;8756;49.29324300;8.70599800;2023-04-25T08:14:02;8.70;99.90
5848;DHT22;8756;49.29324300;8.70599800;2023-04-25T08:16:28;8.70;99.90
5848;DHT22;8756;49.29324300;8.70599800;2023-04-25T08:18:53;8.70;99.90
5848;DHT22;8756;49.29324300;8.70599800;2023-04-25T08:21:19;8.70;99.90
5848;DHT22;8756;49.29324300;8.70599800;2023-04-25T08:23:45;8.60;99.90
5848;DHT22;8756;49.29324300;8.70599800;2023-04-25T08:26:11;8.60;99.90
5848;DHT22;8756;49.29324300;8.70599800;2023-04-25T08:28:37;8.60;99.90
5848;DHT22;8756;49.29324300;8.70599800;2023-04-25T08:31:03;8.60;99.90
5848;DHT22;8756;49.29324300;8.70599800;2023-04-25T08:33:29;8.60;99.90
5848;DHT22;8756;49.29324300;8.70599800;2023-04-25T08:35:58;8.70;99.90
5848;DHT22;8756;49.29324300;8.70599800;2023-04-25T08:38:24;8.70;99.90
5848;DHT22;8756;49.29324300;8.70599800;2023-04-25T08:40:51;8.70;99.90
5848;DHT22;8756;49.29324300;8.70599800;2023-04-25T08:43:19;8.70;99.90
5848;DHT22;8756;49.29324300;8.70599800;2023-04-25T08:45:46;8.70;99.90
5848;DHT22;8756;49.29324300;8.70599800;2023-04-25T08:48:13;8.70;99.90
5848;DHT22;8756;49.29324300;8.70599800;2023-04-25T08:51:01;8.70;99.90
5848;DHT22;8756;49.29324300;8.70599800;2023-04-25T08:53:30;8.70;99.90
5848;DHT22;8756;49.29324300;8.70599800;2023-04-25T08:55:59;8.70;99.90
5848;DHT22;8756;49.29324300;8.70599800;2023-04-25T08:58:27;8.70;99.90
5848;DHT22;8756;49.29324300;8.70599800;2023-04-25T09:00:54;8.70;99.90
5848;DHT22;8756;49.29324300;8.70599800;2023-04-25T09:03:20;8.80;99.90
5848;DHT22;8756;49.29324300;8.70599800;2023-04-25T09:05:45;8.80;99.90
5848;DHT22;8756;49.29324300;8.70599800;2023-04-25T09:08:11;8.90;99.90
5848;DHT22;8756;49.29324300;8.70599800;2023-04-25T09:10:38;9.00;99.90
5848;DHT22;8756;49.29324300;8.70599800;2023-04-25T09:13:05;9.10;99.90
5848;DHT22;8756;49.29324300;8.70599800;2023-04-25T09:15:55;9.10;99.90
5848;DHT22;8756;49.29324300;8.70599800;2023-04-25T09:20:53;9.30;99.90
5848;DHT22;8756;49.29324300;8.70599800;2023-04-25T09:23:21;9.40;99.90
5848;DHT22;8756;49.29324300;8.70599800;2023-04-25T09:25:52;9.50;99.90
5848;DHT22;8756;49.29324300;8.70599800;2023-04-25T09:28:26;9.50;99.90
5848;DHT22;8756;49.29324300;8.70599800;2023-04-25T09:30:56;9.50;99.90
5848;DHT22;8756;49.29324300;8.70599800;2023-04-25T09:33:33;9.50;99.90
5848;DHT22;8756;49.29324300;8.70599800;2023-04-25T09:36:09;9.50;99.90
5848;DHT22;8756;49.29324300;8.70599800;2023-04-25T09:38:51;9.50;99.90
5848;DHT22;8756;49.29324300;8.70599800;2023-04-25T09:41:23;9.50;99.90
5848;DHT22;8756;49.29324300;8.70599800;2023-04-25T09:43:49;9.50;99.90
5848;DHT22;8756;49.29324300;8.70599800;2023-04-25T09:46:16;9.50;99.90
5848;DHT22;8756;49.29324300;8.70599800;2023-04-25T09:48:53;9.60;99.90
5848;DHT22;8756;49.29324300;8.70599800;2023-04-25T09:51:19;9.60;99.90
5848;DHT22;8756;49.29324300;8.70599800;2023-04-25T09:53:46;9.70;99.90
5848;DHT22;8756;49.29324300;8.70599800;2023-04-25T09:56:15;9.70;99.90
5848;DHT22;8756;49.29324300;8.70599800;2023-04-25T09:58:42;9.80;99.90
5848;DHT22;8756;49.29324300;8.70599800;2023-04-25T10:01:09;9.90;99.90
5848;DHT22;8756;49.29324300;8.70599800;2023-04-25T10:03:37;9.90;99.90
5848;DHT22;8756;49.29324300;8.70599800;2023-04-25T10:06:15;10.00;99.90
5848;DHT22;8756;49.29324300;8.70599800;2023-04-25T10:08:49;10.10;99.90
5848;DHT22;8756;49.29324300;8.70599800;2023-04-25T10:11:17;10.20;99.90
5848;DHT22;8756;49.29324300;8.70599800;2023-04-25T10:13:43;10.20;99.90
5848;DHT22;8756;49.29324300;8.70599800;2023-04-25T10:16:09;10.30;99.90
5848;DHT22;8756;49.29324300;8.70599800;2023-04-25T10:18:35;10.40;99.90
5848;DHT22;8756;49.29324300;8.70599800;2023-04-25T10:21:04;10.50;99.90
5848;DHT22;8756;49.29324300;8.70599800;2023-04-25T10:23:32;10.50;99.90
5848;DHT22;8756;49.29324300;8.70599800;2023-04-25T10:25:59;10.60;99.90
5848;DHT22;8756;49.29324300;8.70599800;2023-04-25T10:28:26;10.60;99.90
5848;DHT22;8756;49.29324300;8.70599800;2023-04-25T10:31:01;10.60;99.90
5848;DHT22;8756;49.29324300;8.70599800;2023-04-25T10:33:39;10.70;99.90
5848;DHT22;8756;49.29324300;8.70599800;2023-04-25T10:36:15;10.70;99.90
5848;DHT22;8756;49.29324300;8.70599800;2023-04-25T10:38:45;10.70;99.90
5848;DHT22;8756;49.29324300;8.70599800;2023-04-25T10:41:12;10.70;99.90
5848;DHT22;8756;49.29324300;8.70599800;2023-04-25T10:43:43;10.70;99.90
5848;DHT22;8756;49.29324300;8.70599800;2023-04-25T10:46:26;10.70;99.90
5848;DHT22;8756;49.29324300;8.70599800;2023-04-25T10:48:54;10.70;99.90
5848;DHT22;8756;49.29324300;8.70599800;2023-04-25T10:51:39;10.60;99.90
5848;DHT22;8756;49.29324300;8.70599800;2023-04-25T10:54:07;10.70;99.90
5848;DHT22;8756;49.29324300;8.70599800;2023-04-25T10:56:41;10.70;99.90
5848;DHT22;8756;49.29324300;8.70599800;2023-04-25T10:59:13;10.70;99.90
5848;DHT22;8756;49.29324300;8.70599800;2023-04-25T11:01:43;10.70;99.90
5848;DHT22;8756;49.29324300;8.70599800;2023-04-25T11:09:47;10.60;99.90
5848;DHT22;8756;49.29324300;8.70599800;2023-04-25T11:12:14;10.60;99.90
5848;DHT22;8756;49.29324300;8.70599800;2023-04-25T11:14:40;10.60;99.90
5848;DHT22;8756;49.29324300;8.70599800;2023-04-25T11:17:06;10.60;99.90
5848;DHT22;8756;49.29324300;8.70599800;2023-04-25T11:19:32;10.70;99.90
5848;DHT22;8756;49.29324300;8.70599800;2023-04-25T11:21:59;10.80;99.90
5848;DHT22;8756;49.29324300;8.70599800;2023-04-25T11:24:33;10.80;99.90
5848;DHT22;8756;49.29324300;8.70599800;2023-04-25T11:27:03;10.80;99.90
5848;DHT22;8756;49.29324300;8.70599800;2023-04-25T11:29:30;10.80;99.90
5848;DHT22;8756;49.29324300;8.70599800;2023-04-25T11:31:57;10.90;99.90
5848;DHT22;8756;49.29324300;8.70599800;2023-04-25T11:34:24;10.90;99.90
5848;DHT22;8756;49.29324300;8.70599800;2023-04-25T11:36:51;10.90;99.90
5848;DHT22;8756;49.29324300;8.70599800;2023-04-25T11:39:18;10.80;99.90
5848;DHT22;8756;49.29324300;8.70599800;2023-04-25T11:41:45;10.80;99.90
5848;DHT22;8756;49.29324300;8.70599800;2023-04-25T11:44:12;10.80;99.90
5848;DHT22;8756;49.29324300;8.70599800;2023-04-25T11:46:40;10.80;99.90
5848;DHT22;8756;49.29324300;8.70599800;2023-04-25T11:49:07;10.80;99.90
5848;DHT22;8756;49.29324300;8.70599800;2023-04-25T11:51:40;10.90;99.90
5848;DHT22;8756;49.29324300;8.70599800;2023-04-25T11:54:07;10.90;99.90
5848;DHT22;8756;49.29324300;8.70599800;2023-04-25T11:56:33;10.80;99.90
5848;DHT22;8756;49.29324300;8.70599800;2023-04-25T11:58:59;10.80;99.90
5848;DHT22;8756;49.29324300;8.70599800;2023-04-25T12:01:28;10.80;99.90
5848;DHT22;8756;49.29324300;8.70599800;2023-04-25T12:03:58;10.70;99.90
5848;DHT22;8756;49.29324300;8.70599800;2023-04-25T12:06:37;10.70;99.90
5848;DHT22;8756;49.29324300;8.70599800;2023-04-25T12:09:09;10.60;99.90
5848;DHT22;8756;49.29324300;8.70599800;2023-04-25T12:11:43;10.50;99.90
5848;DHT22;8756;49.29324300;8.70599800;2023-04-25T12:14:26;10.50;99.90
5848;DHT22;8756;49.29324300;8.70599800;2023-04-25T12:16:58;10.50;99.90
5848;DHT22;8756;49.29324300;8.70599800;2023-04-25T12:19:27;10.60;99.90
5848;DHT22;8756;49.29324300;8.70599800;2023-04-25T12:22:00;10.60;99.90
5848;DHT22;8756;49.29324300;8.70599800;2023-04-25T12:24:27;10.70;99.90
5848;DHT22;8756;49.29324300;8.70599800;2023-04-25T12:27:03;10.70;99.90
5848;DHT22;8756;49.29324300;8.70599800;2023-04-25T12:29:34;10.80;99.90
5848;DHT22;8756;49.29324300;8.70599800;2023-04-25T12:32:00;10.70;99.90
5848;DHT22;8756;49.29324300;8.70599800;2023-04-25T12:34:28;10.70;99.90
5848;DHT22;8756;49.29324300;8.70599800;2023-04-25T12:36:54;10.70;99.90
5848;DHT22;8756;49.29324300;8.70599800;2023-04-25T12:39:22;10.80;99.90
5848;DHT22;8756;49.29324300;8.70599800;2023-04-25T12:41:52;10.70;99.90
5848;DHT22;8756;49.29324300;8.70599800;2023-04-25T12:44:19;10.80;99.90
5848;DHT22;8756;49.29324300;8.70599800;2023-04-25T12:46:45;10.90;99.90
5848;DHT22;8756;49.29324300;8.70599800;2023-04-25T12:49:12;11.00;99.90
5848;DHT22;8756;49.29324300;8.70599800;2023-04-25T12:51:37;11.10;99.90
5848;DHT22;8756;49.29324300;8.70599800;2023-04-25T12:54:04;11.10;99.90
5848;DHT22;8756;49.29324300;8.70599800;2023-04-25T12:56:31;11.10;99.90
5848;DHT22;8756;49.29324300;8.70599800;2023-04-25T12:58:57;11.10;99.90
5848;DHT22;8756;49.29324300;8.70599800;2023-04-25T13:01:24;11.20;99.90
5848;DHT22;8756;49.29324300;8.70599800;2023-04-25T13:03:50;11.10;99.90
5848;DHT22;8756;49.29324300;8.70599800;2023-04-25T13:06:17;11.20;99.90
5848;DHT22;8756;49.29324300;8.70599800;2023-04-25T13:08:44;11.20;99.90
5848;DHT22;8756;49.29324300;8.70599800;2023-04-25T13:11:10;11.30;99.90
5848;DHT22;8756;49.29324300;8.70599800;2023-04-25T13:13:37;11.30;99.90
5848;DHT22;8756;49.29324300;8.70599800;2023-04-25T13:16:04;11.40;99.90
5848;DHT22;8756;49.29324300;8.70599800;2023-04-25T13:18:30;11.40;99.90
5848;DHT22;8756;49.29324300;8.70599800;2023-04-25T13:20:57;11.40;99.90
5848;DHT22;8756;49.29324300;8.70599800;2023-04-25T13:23:25;11.40;99.90
5848;DHT22;8756;49.29324300;8.70599800;2023-04-25T13:25:52;11.40;99.90
5848;DHT22;8756;49.29324300;8.70599800;2023-04-25T13:28:17;11.40;99.90
5848;DHT22;8756;49.29324300;8.70599800;2023-04-25T13:30:44;11.40;99.90
5848;DHT22;8756;49.29324300;8.70599800;2023-04-25T13:33:09;11.30;99.90
5848;DHT22;8756;49.29324300;8.70599800;2023-04-25T13:35:36;11.30;99.90
5848;DHT22;8756;49.29324300;8.70599800;2023-04-25T13:38:03;11.30;99.90
5848;DHT22;8756;49.29324300;8.70599800;2023-04-25T13:40:29;11.30;99.90
5848;DHT22;8756;49.29324300;8.70599800;2023-04-25T13:42:55;11.30;99.90
5848;DHT22;8756;49.29324300;8.70599800;2023-04-25T13:45:21;11.30;99.90
5848;DHT22;8756;49.29324300;8.70599800;2023-04-25T13:47:47;11.30;99.90
5848;DHT22;8756;49.29324300;8.70599800;2023-04-25T13:50:13;11.40;99.90
5848;DHT22;8756;49.29324300;8.70599800;2023-04-25T13:52:41;11.40;99.90
5848;DHT22;8756;49.29324300;8.70599800;2023-04-25T13:55:07;11.50;99.90
5848;DHT22;8756;49.29324300;8.70599800;2023-04-25T13:57:34;11.50;99.90
5848;DHT22;8756;49.29324300;8.70599800;2023-04-25T14:00:02;11.70;99.90
5848;DHT22;8756;49.29324300;8.70599800;2023-04-25T14:02:36;11.80;99.90